Time;durP1;ratioP1;P1;durP2;ratioP2;P2;SDS_P1;SDS_P2;PMS_P1;PMS_P2;Temp;Humidity;BMP_temperature;BMP_pressure;BME280_temperature;BME280_humidity;BME280_pressure;Samples;Min_cycle;Max_cycle;Signal;HPM_P1;HPM_P2
2021/10/16 00:01:20;;;;;;;99.62;56.60;;;;;;;5.26;77.42;94610.69;1721384;81;21129;-56
2021/10/16 00:03:47;;;;;;;102.82;56.92;;;;;;;5.30;77.45;94614.73;1721186;82;21582;-55
2021/10/16 00:06:14;;;;;;;104.72;56.77;;;;;;;5.32;77.46;94611.77;1719657;82;21070;-56
2021/10/16 00:08:42;;;;;;;104.10;58.28;;;;;;;5.41;77.51;94612.59;1701652;81;21096;-57
2021/10/16 00:11:10;;;;;;;103.78;53.92;;;;;;;5.49;77.23;94606.59;1726051;82;20967;-58
2021/10/16 00:13:38;;;;;;;97.72;55.12;;;;;;;5.59;77.21;94613.04;1723770;82;21109;-57
2021/10/16 00:16:05;;;;;;;102.87;51.77;;;;;;;5.66;76.97;94609.59;1717982;81;21217;-58
2021/10/16 00:18:33;;;;;;;81.17;47.67;;;;;;;5.69;76.63;94610.11;1737493;81;21307;-56
2021/10/16 00:21:00;;;;;;;86.90;48.42;;;;;;;5.67;76.49;94607.61;1728779;82;20995;-58
2021/10/16 00:23:27;;;;;;;90.53;48.20;;;;;;;5.60;76.50;94598.20;1716968;81;21488;-58
2021/10/16 00:25:54;;;;;;;81.75;47.15;;;;;;;5.56;76.53;94602.94;1731092;82;21613;-59
2021/10/16 00:28:20;;;;;;;89.52;47.03;;;;;;;5.53;76.53;94606.51;1728450;81;21006;-57
2021/10/16 00:30:49;;;;;;;105.85;57.33;;;;;;;5.48;76.55;94596.09;1725405;82;20967;-57
2021/10/16 00:33:16;;;;;;;106.03;61.42;;;;;;;5.41;76.92;94595.63;1724412;82;21128;-56
2021/10/16 00:35:47;;;;;;;103.65;59.53;;;;;;;5.41;77.22;94585.32;1737767;81;21535;-56
2021/10/16 00:38:18;;;;;;;96.95;55.83;;;;;;;5.44;77.11;94583.11;1727359;81;21834;-56
2021/10/16 00:40:45;;;;;;;102.97;57.20;;;;;;;5.45;77.06;94575.11;1744794;81;21527;-56
2021/10/16 00:43:16;;;;;;;101.18;56.37;;;;;;;5.41;77.21;94571.07;1738628;82;21513;-57
2021/10/16 00:45:51;;;;;;;102.35;58.73;;;;;;;5.41;77.45;94586.69;1738450;82;21525;-56
2021/10/16 00:48:18;;;;;;;110.68;58.50;;;;;;;5.39;77.62;94578.16;1736711;82;20991;-57
2021/10/16 00:50:45;;;;;;;101.85;56.48;;;;;;;5.42;77.59;94578.67;1731777;81;21081;-57
2021/10/16 00:53:12;;;;;;;101.70;57.73;;;;;;;5.46;77.71;94567.85;1733138;82;21395;-57
2021/10/16 00:55:40;;;;;;;99.87;56.83;;;;;;;5.52;78.00;94567.56;1738002;81;20975;-57
2021/10/16 00:58:06;;;;;;;103.58;53.78;;;;;;;5.60;78.19;94569.56;1730503;82;21017;-56
2021/10/16 01:00:33;;;;;;;84.32;47.38;;;;;;;5.72;78.18;94573.01;1723887;82;21627;-59
2021/10/16 01:03:02;;;;;;;86.05;48.48;;;;;;;5.81;77.64;94569.16;1733108;81;21185;-57
2021/10/16 01:05:30;;;;;;;82.50;45.20;;;;;;;5.77;77.40;94576.02;1730831;82;21019;-57
2021/10/16 01:07:59;;;;;;;76.05;40.80;;;;;;;5.71;77.44;94583.17;1731354;82;21032;-57
2021/10/16 01:10:26;;;;;;;76.87;42.55;;;;;;;5.68;77.33;94580.50;1731082;82;21035;-55
2021/10/16 01:12:54;;;;;;;73.42;41.10;;;;;;;5.63;77.36;94572.81;1709451;82;21582;-57
2021/10/16 01:15:23;;;;;;;72.60;41.95;;;;;;;5.66;77.68;94576.06;1732048;82;21338;-58
2021/10/16 01:17:50;;;;;;;146.47;103.17;;;;;;;5.66;77.61;94571.97;1731234;82;21122;-60
2021/10/16 01:20:21;;;;;;;94.58;62.70;;;;;;;5.63;77.66;94568.11;1730699;81;21060;-58
2021/10/16 01:22:51;;;;;;;114.28;74.87;;;;;;;5.63;78.00;94570.83;1754327;81;21004;-57
2021/10/16 01:25:22;;;;;;;92.65;53.08;;;;;;;5.73;77.87;94581.37;1708471;82;20951;-57
2021/10/16 01:27:50;;;;;;;92.88;55.43;;;;;;;5.75;77.66;94569.46;1729287;82;21272;-57
2021/10/16 01:30:21;;;;;;;81.90;47.80;;;;;;;5.74;77.54;94569.27;1727553;81;21051;-58
2021/10/16 01:32:49;;;;;;;85.50;50.35;;;;;;;5.74;77.63;94567.89;1725510;82;21027;-56
2021/10/16 01:35:15;;;;;;;90.83;49.93;;;;;;;5.78;77.96;94564.52;1719608;82;21057;-57
2021/10/16 01:37:47;;;;;;;81.65;48.30;;;;;;;5.84;77.84;94560.13;1724348;81;21525;-57
2021/10/16 01:40:15;;;;;;;77.33;45.13;;;;;;;5.91;77.86;94566.80;1731752;81;21196;-58
2021/10/16 01:42:44;;;;;;;78.12;43.17;;;;;;;5.99;77.56;94563.50;1739735;81;20985;-57
2021/10/16 01:45:14;;;;;;;71.90;43.15;;;;;;;6.02;77.28;94564.05;1731171;82;20971;-57
2021/10/16 01:47:52;;;;;;;80.28;42.62;;;;;;;6.02;77.45;94571.45;1726432;81;21060;-59
2021/10/16 01:50:22;;;;;;;68.20;38.35;;;;;;;6.06;77.43;94570.20;1723073;81;20951;-58
2021/10/16 01:52:49;;;;;;;77.58;44.30;;;;;;;6.12;77.22;94565.02;1728955;81;21200;-57
2021/10/16 01:55:17;;;;;;;77.97;42.35;;;;;;;6.14;77.11;94572.94;1744087;81;21429;-60
2021/10/16 01:57:47;;;;;;;74.20;42.00;;;;;;;6.13;77.13;94569.28;1730428;81;20963;-56
2021/10/16 02:00:16;;;;;;;84.32;44.05;;;;;;;6.10;77.09;94561.91;1726067;81;21049;-57
2021/10/16 02:02:42;;;;;;;82.05;44.00;;;;;;;6.01;77.11;94560.36;1709946;82;20987;-56
2021/10/16 02:05:11;;;;;;;72.85;42.90;;;;;;;5.92;77.23;94561.52;1736006;82;21184;-57
2021/10/16 02:07:39;;;;;;;66.50;38.65;;;;;;;5.82;77.41;94555.08;1731181;82;20959;-57
2021/10/16 02:10:06;;;;;;;73.45;42.05;;;;;;;5.78;77.58;94550.87;1740603;81;21100;-57
2021/10/16 02:12:33;;;;;;;83.27;46.63;;;;;;;5.73;77.79;94561.69;1721168;81;21085;-56
2021/10/16 02:15:01;;;;;;;88.95;47.98;;;;;;;5.73;77.98;94567.72;1733471;82;20971;-56
2021/10/16 02:17:30;;;;;;;88.55;49.23;;;;;;;5.69;78.20;94567.81;1732139;82;21157;-56
2021/10/16 02:19:58;;;;;;;91.17;49.53;;;;;;;5.62;78.62;94560.36;1727187;81;20938;-56
2021/10/16 02:22:25;;;;;;;92.67;47.10;;;;;;;5.64;78.91;94575.10;1724045;81;20966;-58
2021/10/16 02:24:52;;;;;;;89.37;48.73;;;;;;;5.73;79.16;94575.91;1730568;82;21011;-57
2021/10/16 02:27:20;;;;;;;83.03;46.58;;;;;;;5.81;78.88;94566.44;1732283;82;21038;-56
2021/10/16 02:29:47;;;;;;;87.97;47.60;;;;;;;5.86;78.69;94564.58;1734534;82;21139;-57
2021/10/16 02:32:14;;;;;;;77.75;44.60;;;;;;;5.88;78.74;94570.38;1726326;81;21608;-58
2021/10/16 02:34:41;;;;;;;83.10;47.40;;;;;;;5.91;78.72;94573.63;1742133;81;20950;-58
2021/10/16 02:37:09;;;;;;;75.70;44.08;;;;;;;5.95;78.94;94572.98;1731428;81;21052;-56
2021/10/16 02:39:36;;;;;;;87.97;49.23;;;;;;;6.02;78.76;94575.55;1743951;82;21074;-56
2021/10/16 02:42:03;;;;;;;86.32;45.38;;;;;;;6.08;78.69;94576.58;1731175;82;21093;-57
2021/10/16 02:44:32;;;;;;;68.83;39.27;;;;;;;6.14;78.47;94574.30;1724530;82;21441;-57
2021/10/16 02:46:59;;;;;;;75.95;41.35;;;;;;;6.16;78.15;94577.98;1717854;81;21694;-57
2021/10/16 02:49:26;;;;;;;76.40;44.65;;;;;;;6.14;78.12;94569.45;1727019;81;21057;-57
2021/10/16 02:51:53;;;;;;;81.92;44.25;;;;;;;6.15;78.63;94574.47;1731555;82;20931;-56
2021/10/16 02:54:20;;;;;;;82.75;43.87;;;;;;;6.21;78.33;94572.02;1723774;82;21842;-57
2021/10/16 02:56:48;;;;;;;82.97;46.80;;;;;;;6.16;77.98;94569.19;1725768;82;20950;-56
2021/10/16 02:59:15;;;;;;;85.15;47.48;;;;;;;6.10;78.17;94579.66;1731261;81;21101;-56
2021/10/16 03:01:44;;;;;;;93.97;51.35;;;;;;;6.05;78.40;94578.80;1724799;81;21117;-61
2021/10/16 03:04:12;;;;;;;108.00;54.53;;;;;;;6.06;78.59;94576.23;1734568;81;21065;-57
2021/10/16 03:06:39;;;;;;;111.45;58.33;;;;;;;6.11;78.60;94575.73;1731022;82;21161;-56
2021/10/16 03:09:07;;;;;;;131.47;64.80;;;;;;;6.14;78.73;94580.38;1727329;82;20946;-57
2021/10/16 03:11:35;;;;;;;131.47;66.30;;;;;;;6.15;78.94;94574.47;1725484;81;21043;-57
2021/10/16 03:14:03;;;;;;;139.37;71.17;;;;;;;6.19;78.96;94581.98;1726495;82;21167;-56
2021/10/16 03:16:31;;;;;;;121.42;63.58;;;;;;;6.19;78.97;94579.88;1737238;81;21086;-57
2021/10/16 03:18:58;;;;;;;93.55;50.65;;;;;;;6.19;79.13;94587.45;1730136;82;21143;-57
2021/10/16 03:21:26;;;;;;;77.92;42.70;;;;;;;6.17;79.02;94587.72;1729091;82;20983;-57
2021/10/16 03:23:53;;;;;;;77.53;43.33;;;;;;;6.15;78.99;94583.28;1740746;82;21239;-57
2021/10/16 03:26:21;;;;;;;66.42;37.85;;;;;;;6.12;78.91;94588.23;1733167;81;20965;-57
2021/10/16 03:28:47;;;;;;;75.12;41.28;;;;;;;6.05;79.00;94580.95;1738547;81;20991;-58
2021/10/16 03:31:15;;;;;;;87.37;43.28;;;;;;;6.00;79.18;94577.94;1729391;82;21981;-57
2021/10/16 03:33:42;;;;;;;76.00;42.10;;;;;;;5.94;79.59;94576.91;1734531;82;21058;-58
2021/10/16 03:36:09;;;;;;;75.37;43.52;;;;;;;5.94;79.61;94585.09;1723927;81;21010;-55
2021/10/16 03:38:36;;;;;;;77.67;42.58;;;;;;;5.92;79.78;94583.35;1728919;81;21004;-55
2021/10/16 03:41:03;;;;;;;100.12;53.00;;;;;;;5.89;79.88;94576.80;1733444;82;21632;-56
2021/10/16 03:43:30;;;;;;;94.65;50.40;;;;;;;5.93;80.30;94581.58;1728756;81;21081;-63
2021/10/16 03:45:57;;;;;;;107.58;56.70;;;;;;;6.00;80.38;94584.15;1734305;81;21003;-56
2021/10/16 03:48:29;;;;;;;101.62;54.50;;;;;;;6.07;80.46;94580.51;1731132;82;21543;-59
2021/10/16 03:50:56;;;;;;;113.93;57.97;;;;;;;6.15;80.38;94580.55;1677600;82;21031;-57
2021/10/16 03:53:27;;;;;;;91.85;49.77;;;;;;;6.18;80.07;94576.97;1683376;84;20938;-57
2021/10/16 03:56:04;;;;;;;89.72;49.48;;;;;;;6.21;80.02;94577.48;1683457;84;21006;-57
2021/10/16 03:58:37;;;;;;;101.33;54.18;;;;;;;6.27;80.02;94583.98;1684813;85;20891;-58
2021/10/16 04:01:09;;;;;;;93.45;51.68;;;;;;;6.32;80.05;94587.59;1634638;86;21003;-58
2021/10/16 04:03:42;;;;;;;90.97;52.78;;;;;;;6.37;79.73;94590.58;1684652;85;21098;-56
2021/10/16 04:06:09;;;;;;;106.67;57.48;;;;;;;6.34;79.74;94589.30;1655925;86;20955;-58
2021/10/16 04:08:35;;;;;;;112.10;59.95;;;;;;;6.32;79.80;94580.77;1672492;85;21087;-58
2021/10/16 04:11:02;;;;;;;117.57;61.28;;;;;;;6.35;79.94;94585.38;1683011;84;21062;-59
2021/10/16 04:13:29;;;;;;;107.85;56.00;;;;;;;6.35;79.59;94590.84;1656065;86;21007;-56
2021/10/16 04:15:55;;;;;;;114.97;58.83;;;;;;;6.33;79.51;94587.77;1646161;87;21567;-57
2021/10/16 04:18:22;;;;;;;107.97;57.75;;;;;;;6.30;79.73;94594.08;1645276;87;20975;-57
2021/10/16 04:20:49;;;;;;;94.70;48.58;;;;;;;6.27;79.79;94596.27;1684892;84;21239;-57
2021/10/16 04:23:16;;;;;;;88.03;46.75;;;;;;;6.24;79.74;94592.44;1656023;86;20999;-57
2021/10/16 04:25:43;;;;;;;90.87;49.70;;;;;;;6.14;79.68;94591.30;1646099;87;20991;-58
2021/10/16 04:28:11;;;;;;;94.90;49.83;;;;;;;6.04;79.84;94593.64;1645847;86;21031;-58
2021/10/16 04:30:39;;;;;;;85.50;48.80;;;;;;;6.01;80.30;94597.22;1644569;87;20992;-57
2021/10/16 04:33:07;;;;;;;88.37;49.45;;;;;;;6.03;80.32;94600.30;1671483;85;21962;-57
2021/10/16 04:35:35;;;;;;;88.65;50.65;;;;;;;6.04;80.43;94597.74;1678646;85;21054;-58
2021/10/16 04:38:01;;;;;;;98.52;55.40;;;;;;;6.07;80.48;94596.31;1656145;86;21031;-57
2021/10/16 04:40:28;;;;;;;93.95;50.83;;;;;;;6.10;80.60;94598.19;1646143;87;21512;-57
2021/10/16 04:42:56;;;;;;;89.42;49.25;;;;;;;6.16;80.57;94597.11;1637824;87;21089;-59
2021/10/16 04:45:23;;;;;;;95.38;50.25;;;;;;;6.17;80.40;94593.18;1645167;87;21164;-57
2021/10/16 04:47:51;;;;;;;96.70;50.48;;;;;;;6.15;80.47;94590.86;1645357;87;21425;-57
2021/10/16 04:50:17;;;;;;;94.75;50.58;;;;;;;6.18;80.70;94597.45;1685026;84;21078;-57
2021/10/16 04:52:46;;;;;;;92.53;50.92;;;;;;;6.19;80.68;94598.99;1685036;85;21023;-58
2021/10/16 04:55:14;;;;;;;94.77;52.60;;;;;;;6.18;80.69;94596.84;1684185;85;21090;-59
2021/10/16 04:57:41;;;;;;;96.90;53.23;;;;;;;6.20;81.05;94595.06;1685015;84;21134;-57
2021/10/16 05:00:10;;;;;;;103.50;54.85;;;;;;;6.27;81.05;94597.63;1684969;85;21015;-57
2021/10/16 05:02:41;;;;;;;83.15;46.65;;;;;;;6.32;80.90;94603.38;1656202;86;21051;-58
2021/10/16 05:05:08;;;;;;;81.08;45.65;;;;;;;6.35;80.63;94607.98;1640842;87;21591;-58
2021/10/16 05:07:36;;;;;;;65.12;39.90;;;;;;;6.35;80.60;94607.98;1638686;87;21084;-58
2021/10/16 05:10:05;;;;;;;62.48;36.70;;;;;;;6.38;80.68;94603.65;1645193;86;21185;-58
2021/10/16 05:12:32;;;;;;;68.45;36.00;;;;;;;6.39;80.67;94614.75;1645258;87;20969;-58
2021/10/16 05:14:59;;;;;;;87.62;44.58;;;;;;;6.39;80.60;94610.07;1645113;87;20996;-58
2021/10/16 05:17:26;;;;;;;97.75;53.83;;;;;;;6.38;80.56;94617.31;1645270;87;21072;-58
2021/10/16 05:19:54;;;;;;;117.87;63.40;;;;;;;6.38;80.83;94613.21;1645235;87;21123;-57
2021/10/16 05:22:21;;;;;;;143.40;70.32;;;;;;;6.44;80.79;94615.61;1645153;86;21104;-58
2021/10/16 05:24:49;;;;;;;132.47;71.57;;;;;;;6.48;80.62;94617.08;1645158;87;21006;-58
2021/10/16 05:27:16;;;;;;;121.67;62.43;;;;;;;6.52;80.81;94612.30;1645202;87;21105;-58
2021/10/16 05:29:43;;;;;;;114.75;59.60;;;;;;;6.57;80.83;94609.67;1645295;87;20994;-58
2021/10/16 05:32:10;;;;;;;117.72;62.73;;;;;;;6.62;80.66;94621.45;1645357;86;21102;-61
2021/10/16 05:34:37;;;;;;;117.47;60.33;;;;;;;6.62;80.76;94619.50;1645276;87;21160;-60
2021/10/16 05:37:07;;;;;;;100.33;64.15;;;;;;;6.70;80.91;94631.05;1645201;87;21013;-59
2021/10/16 05:39:36;;;;;;;70.42;42.20;;;;;;;6.80;80.53;94630.02;1645157;87;21048;-59
2021/10/16 05:42:05;;;;;;;74.87;44.48;;;;;;;6.88;80.17;94632.78;1645282;87;21065;-58
2021/10/16 05:44:32;;;;;;;74.80;45.85;;;;;;;6.97;79.64;94637.05;1645437;86;21033;-60
2021/10/16 05:46:59;;;;;;;91.87;46.02;;;;;;;7.01;79.40;94631.67;1645326;87;21145;-59
2021/10/16 05:49:26;;;;;;;76.65;43.92;;;;;;;7.01;79.42;94622.69;1645392;87;21009;-58
2021/10/16 05:51:53;;;;;;;88.15;49.50;;;;;;;7.01;79.11;94630.30;1645207;87;20989;-61
2021/10/16 05:54:21;;;;;;;88.12;49.55;;;;;;;7.02;79.15;94629.69;1644594;86;21496;-59
2021/10/16 05:56:48;;;;;;;105.65;62.20;;;;;;;7.01;78.82;94637.14;1645288;87;21037;-60
2021/10/16 05:59:15;;;;;;;87.47;50.80;;;;;;;7.01;78.89;94646.72;1645146;87;21954;-59
2021/10/16 06:01:41;;;;;;;88.55;48.48;;;;;;;7.09;79.00;94643.97;1645440;87;20973;-62
2021/10/16 06:04:08;;;;;;;85.38;45.78;;;;;;;7.14;78.61;94640.13;1685165;84;21561;-58
2021/10/16 06:06:35;;;;;;;84.03;45.52;;;;;;;7.15;78.31;94640.91;1656329;86;21107;-58
2021/10/16 06:09:02;;;;;;;84.45;48.92;;;;;;;7.13;78.10;94637.23;1646119;87;20989;-58
2021/10/16 06:11:31;;;;;;;87.90;48.65;;;;;;;7.14;78.21;94644.23;1674569;85;20967;-59
2021/10/16 06:13:58;;;;;;;79.30;44.40;;;;;;;7.20;78.08;94643.91;1684932;85;21501;-60
2021/10/16 06:16:25;;;;;;;101.38;49.40;;;;;;;7.22;77.86;94642.88;1685061;84;21078;-59
2021/10/16 06:18:53;;;;;;;101.42;55.17;;;;;;;7.22;77.89;94651.67;1655761;86;21007;-58
2021/10/16 06:21:20;;;;;;;107.27;58.48;;;;;;;7.17;78.01;94650.21;1646075;86;21004;-58
2021/10/16 06:23:47;;;;;;;113.10;55.08;;;;;;;7.17;78.16;94652.20;1644347;86;21084;-59
2021/10/16 06:26:16;;;;;;;81.32;45.98;;;;;;;7.21;78.35;94659.72;1644898;87;21064;-59
2021/10/16 06:28:43;;;;;;;77.00;43.40;;;;;;;7.22;78.12;94656.56;1645138;86;21041;-60
2021/10/16 06:31:09;;;;;;;75.17;41.53;;;;;;;7.21;78.02;94655.61;1645037;87;20985;-59
2021/10/16 06:33:36;;;;;;;88.70;48.80;;;;;;;7.16;77.92;94656.89;1645268;87;21032;-57
2021/10/16 06:36:04;;;;;;;97.85;52.48;;;;;;;7.16;78.03;94653.39;1645065;87;21149;-58
2021/10/16 06:38:45;;;;;;;97.88;52.67;;;;;;;7.21;78.46;94652.88;1684795;84;21582;-62
2021/10/16 06:41:12;;;;;;;95.25;56.10;;;;;;;7.33;78.42;94658.42;1684915;84;21454;-62
2021/10/16 06:43:57;;;;;;;86.75;47.08;;;;;;;7.42;78.39;94658.61;1685023;84;21035;-63
2021/10/16 06:46:26;;;;;;;83.55;44.63;;;;;;;7.54;78.04;94658.50;1683200;85;21059;-63
2021/10/16 06:49:00;;;;;;;58.33;34.43;;;;;;;7.59;77.82;94660.13;1682725;85;22009;-64
2021/10/16 06:51:29;;;;;;;61.98;35.33;;;;;;;7.62;77.64;94664.74;1684947;84;20955;-62
2021/10/16 06:53:55;;;;;;;86.72;42.43;;;;;;;7.70;77.26;94659.24;1656232;86;21062;-59
2021/10/16 06:56:22;;;;;;;77.50;42.58;;;;;;;7.73;77.04;94663.09;1646235;87;20984;-64
2021/10/16 06:58:50;;;;;;;66.92;38.53;;;;;;;7.73;76.98;94670.70;1645064;86;21022;-66
2021/10/16 07:01:17;;;;;;;58.05;35.23;;;;;;;7.76;76.80;94663.02;1685457;84;21154;-60
2021/10/16 07:03:47;;;;;;;71.40;35.78;;;;;;;7.73;76.51;94661.73;1684862;85;21102;-59
2021/10/16 07:06:15;;;;;;;63.58;33.15;;;;;;;7.70;76.69;94670.81;1704458;82;21078;-59
2021/10/16 07:08:47;;;;;;;55.25;35.52;;;;;;;7.76;76.53;94658.91;1702848;81;20944;-59
2021/10/16 07:11:17;;;;;;;62.55;35.85;;;;;;;7.79;76.20;94670.37;1720302;82;21033;-61
2021/10/16 07:13:46;;;;;;;50.75;30.23;;;;;;;7.79;76.21;94667.63;1724755;82;21999;-62
2021/10/16 07:16:20;;;;;;;43.75;26.37;;;;;;;7.79;76.12;94671.73;1718294;81;21173;-59
2021/10/16 07:18:51;;;;;;;;;;;;;;;7.85;75.89;94678.22;1744105;81;21521;-59
2021/10/16 07:21:18;;;;;;;45.95;28.38;;;;;;;7.82;75.79;94674.98;1727667;81;20139;-60
2021/10/16 07:23:45;;;;;;;43.02;26.42;;;;;;;7.83;75.81;94672.41;1725862;82;20989;-62
2021/10/16 07:26:12;;;;;;;60.10;32.85;;;;;;;7.93;75.54;94682.91;1734459;82;21128;-60
2021/10/16 07:28:40;;;;;;;54.48;30.95;;;;;;;8.00;75.34;94678.61;1733129;82;20934;-60
2021/10/16 07:31:07;;;;;;;51.05;33.40;;;;;;;8.10;75.37;94682.42;1733285;81;21002;-61
2021/10/16 07:33:34;;;;;;;57.75;34.23;;;;;;;8.25;75.20;94682.25;1741133;81;20994;-60
2021/10/16 07:36:00;;;;;;;66.42;37.03;;;;;;;8.39;75.03;94679.12;1735523;81;21077;-61
2021/10/16 07:38:28;;;;;;;81.37;40.65;;;;;;;8.46;74.48;94677.53;1728923;82;21156;-61
2021/10/16 07:40:54;;;;;;;209.30;87.65;;;;;;;8.55;74.41;94680.42;1726019;81;21526;-61
2021/10/16 07:43:24;;;;;;;72.27;39.25;;;;;;;8.70;74.01;94679.41;1725322;82;21565;-60
2021/10/16 07:45:50;;;;;;;69.32;32.50;;;;;;;8.82;73.31;94685.52;1731294;82;21512;-61
2021/10/16 07:48:17;;;;;;;60.92;32.42;;;;;;;8.88;72.89;94685.92;1722050;81;21023;-61
2021/10/16 07:50:44;;;;;;;62.70;29.10;;;;;;;8.96;72.57;94681.73;1725367;82;21140;-60
2021/10/16 07:53:12;;;;;;;60.52;32.17;;;;;;;9.06;72.32;94683.41;1729138;82;20983;-60
2021/10/16 07:55:38;;;;;;;50.28;27.73;;;;;;;9.16;72.04;94683.08;1725793;82;20966;-59
2021/10/16 07:58:05;;;;;;;45.15;26.10;;;;;;;9.26;71.85;94684.70;1732875;82;21039;-61
2021/10/16 08:00:33;;;;;;;41.63;24.92;;;;;;;9.38;71.46;94687.28;1731123;82;20953;-59
2021/10/16 08:03:00;;;;;;;49.20;25.35;;;;;;;9.48;71.44;94684.81;1733438;82;21124;-59
2021/10/16 08:05:26;;;;;;;85.47;40.92;;;;;;;9.59;71.39;94682.50;1733362;82;21011;-59
2021/10/16 08:07:54;;;;;;;51.98;28.87;;;;;;;9.74;71.08;94681.58;1737661;82;21434;-62
2021/10/16 08:10:21;;;;;;;58.70;32.25;;;;;;;9.89;70.24;94684.61;1723964;82;20959;-61
2021/10/16 08:12:48;;;;;;;42.95;25.05;;;;;;;9.94;69.96;94686.80;1724078;82;21049;-60
2021/10/16 08:15:15;;;;;;;56.75;30.48;;;;;;;10.09;70.11;94687.29;1727696;82;21872;-60
2021/10/16 08:17:44;;;;;;;64.92;31.93;;;;;;;10.26;69.56;94679.03;1713822;82;20958;-60
2021/10/16 08:20:11;;;;;;;36.08;19.80;;;;;;;10.46;69.07;94684.20;1732487;82;21033;-61
2021/10/16 08:22:42;;;;;;;32.35;19.75;;;;;;;10.65;68.50;94685.28;1732604;82;20995;-60
2021/10/16 08:25:09;;;;;;;27.90;16.70;;;;;;;10.83;68.75;94682.02;1736307;82;21495;-61
2021/10/16 08:27:36;;;;;;;25.37;16.25;;;;;;;10.97;68.53;94685.61;1726687;82;21801;-63
2021/10/16 08:30:04;;;;;;;20.68;13.72;;;;;;;11.06;68.15;94681.55;1722634;81;21033;-61
2021/10/16 08:32:31;;;;;;;18.95;11.80;;;;;;;11.14;68.09;94685.55;1730788;82;20963;-62
2021/10/16 08:34:58;;;;;;;18.55;10.68;;;;;;;11.24;68.00;94678.88;1725999;82;21021;-59
2021/10/16 08:37:25;;;;;;;17.57;10.63;;;;;;;11.39;67.64;94681.21;1729354;82;21061;-59
2021/10/16 08:39:51;;;;;;;11.90;8.35;;;;;;;11.50;67.07;94681.57;1735251;82;21180;-59
2021/10/16 08:42:19;;;;;;;12.82;8.63;;;;;;;11.58;65.79;94680.11;1732588;82;20960;-67
2021/10/16 08:44:46;;;;;;;13.78;8.30;;;;;;;11.70;65.35;94674.32;1728369;82;21016;-59
2021/10/16 08:47:12;;;;;;;12.50;8.83;;;;;;;11.87;64.50;94685.23;1718581;82;21001;-60
2021/10/16 08:49:40;;;;;;;20.72;13.48;;;;;;;12.07;64.40;94684.95;1733127;82;21073;-60
2021/10/16 08:52:07;;;;;;;14.45;8.65;;;;;;;12.25;63.90;94685.59;1717161;82;21143;-64
2021/10/16 08:54:39;;;;;;;18.40;10.38;;;;;;;12.46;62.95;94686.05;1722333;82;21449;-61
2021/10/16 08:57:06;;;;;;;30.70;15.85;;;;;;;12.65;61.73;94687.72;1733580;81;21073;-61
2021/10/16 08:59:33;;;;;;;47.65;21.82;;;;;;;12.76;61.62;94690.01;1734292;82;21077;-61
2021/10/16 09:02:03;;;;;;;29.20;18.42;;;;;;;12.82;61.62;94687.55;1720834;82;20942;-60
2021/10/16 09:04:33;;;;;;;29.02;16.45;;;;;;;12.93;61.27;94685.72;1732268;82;20936;-60
2021/10/16 09:07:00;;;;;;;27.73;16.27;;;;;;;12.96;60.89;94686.95;1719371;82;21106;-64
2021/10/16 09:09:31;;;;;;;24.15;15.95;;;;;;;13.01;60.37;94696.58;1728022;82;20999;-59
2021/10/16 09:11:58;;;;;;;21.37;14.20;;;;;;;13.09;60.03;94690.91;1730614;81;21071;-60
2021/10/16 09:14:27;;;;;;;33.65;15.95;;;;;;;13.16;59.56;94689.97;1730220;81;21068;-58
2021/10/16 09:17:01;;;;;;;21.60;12.95;;;;;;;13.22;59.19;94688.70;1728649;82;22033;-60
2021/10/16 09:19:31;;;;;;;19.57;13.03;;;;;;;13.35;59.39;94690.06;1723070;82;21001;-60
2021/10/16 09:22:06;;;;;;;30.37;13.58;;;;;;;13.49;58.21;94687.23;1730050;82;21038;-58
2021/10/16 09:24:41;;;;;;;18.50;12.35;;;;;;;13.60;57.37;94687.51;1741048;82;20979;-60
2021/10/16 09:27:14;;;;;;;11.25;8.05;;;;;;;13.70;56.97;94690.36;1730102;82;20954;-61
2021/10/16 09:30:02;;;;;;;11.00;7.22;;;;;;;13.72;55.74;94692.82;1732377;81;21148;-59
2021/10/16 09:32:30;;;;;;;8.60;5.17;;;;;;;13.78;55.50;94693.70;1743588;81;20979;-61
2021/10/16 09:35:05;;;;;;;7.20;5.15;;;;;;;13.82;54.92;94691.52;1737658;81;21481;-59
2021/10/16 09:37:33;;;;;;;11.15;6.40;;;;;;;13.85;54.26;94693.98;1733785;82;21030;-62
2021/10/16 09:40:01;;;;;;;15.55;11.15;;;;;;;13.79;53.52;94686.19;1734552;82;21438;-59
2021/10/16 09:42:37;;;;;;;10.55;8.13;;;;;;;13.71;53.60;94694.66;1737832;82;21158;-59
2021/10/16 09:45:06;;;;;;;11.97;7.12;;;;;;;13.72;53.71;94696.19;1736892;82;21036;-60
2021/10/16 09:47:32;;;;;;;14.05;7.47;;;;;;;13.70;53.30;94696.67;1737729;81;20971;-60
2021/10/16 09:50:09;;;;;;;11.88;6.97;;;;;;;13.70;53.94;94702.20;1735024;82;21482;-63
2021/10/16 09:52:40;;;;;;;15.00;8.85;;;;;;;13.70;53.68;94695.89;1725978;81;21089;-63
2021/10/16 09:55:10;;;;;;;14.00;9.30;;;;;;;13.66;53.49;94700.20;1729319;82;21151;-60
2021/10/16 09:57:37;;;;;;;18.20;9.53;;;;;;;13.64;53.74;94699.91;1733638;82;21439;-60
2021/10/16 10:00:06;;;;;;;15.00;8.40;;;;;;;13.64;54.06;94699.16;1697914;82;21525;-61
2021/10/16 10:02:34;;;;;;;14.20;7.92;;;;;;;13.61;53.27;94702.23;1734048;82;21022;-62
2021/10/16 10:05:06;;;;;;;10.70;7.53;;;;;;;13.48;53.18;94698.14;1721250;82;21064;-61
2021/10/16 10:07:34;;;;;;;41.92;22.77;;;;;;;13.33;53.56;94702.80;1720573;82;21939;-60
2021/10/16 10:10:03;;;;;;;53.80;28.90;;;;;;;13.22;54.13;94702.52;1700224;82;21239;-64
2021/10/16 10:12:30;;;;;;;52.98;27.48;;;;;;;13.15;54.87;94705.61;1735707;81;21042;-59
2021/10/16 10:14:58;;;;;;;29.25;17.23;;;;;;;13.15;55.08;94711.14;1733290;81;21140;-62
2021/10/16 10:17:29;;;;;;;11.88;8.33;;;;;;;13.12;55.45;94710.05;1724317;82;21043;-63
2021/10/16 10:20:03;;;;;;;15.23;9.70;;;;;;;13.06;55.27;94713.94;1702942;81;21136;-59
2021/10/16 10:22:35;;;;;;;9.65;6.62;;;;;;;12.94;54.95;94716.24;1740151;81;21019;-60
2021/10/16 10:25:10;;;;;;;;;;;;;;;12.91;55.54;94718.52;1725826;82;21076;-59
2021/10/16 10:27:44;;;;;;;26.12;14.63;;;;;;;12.86;55.68;94712.25;1711367;82;20281;-60
2021/10/16 10:30:36;;;;;;;15.90;10.03;;;;;;;12.74;55.86;94711.16;1725648;81;21070;-60
2021/10/16 10:33:19;;;;;;;13.87;8.73;;;;;;;12.60;56.60;94707.67;1719773;82;21330;-62
2021/10/16 10:36:21;;;;;;;8.18;6.87;;;;;;;12.52;56.93;94713.95;1735632;81;21006;-61
2021/10/16 10:38:49;;;;;;;11.93;7.97;;;;;;;12.45;57.02;94706.59;1737121;81;20975;-60
2021/10/16 10:41:30;;;;;;;92.85;34.45;;;;;;;12.34;57.14;94704.29;1734502;82;21073;-60
2021/10/16 10:43:57;;;;;;;48.10;23.20;;;;;;;12.31;57.26;94704.44;1742247;81;20970;-59
2021/10/16 10:46:27;;;;;;;32.53;16.00;;;;;;;12.33;57.24;94702.76;1737418;81;21815;-58
2021/10/16 10:49:08;;;;;;;36.83;16.85;;;;;;;12.37;57.58;94701.21;1713961;82;21058;-60
2021/10/16 10:51:36;;;;;;;12.68;8.55;;;;;;;12.39;57.51;94695.39;1711814;81;21120;-60
2021/10/16 10:54:15;;;;;;;13.03;7.58;;;;;;;12.46;57.75;94693.70;1716887;82;21082;-62
2021/10/16 10:56:45;;;;;;;8.70;6.55;;;;;;;12.52;57.61;94693.86;1736990;81;21089;-60
2021/10/16 10:59:14;;;;;;;16.80;10.82;;;;;;;12.58;57.71;94688.64;1718780;82;21824;-61
2021/10/16 11:01:54;;;;;;;25.88;17.98;;;;;;;12.59;57.84;94690.95;1741827;82;21101;-60
2021/10/16 11:04:39;;;;;;;16.40;9.48;;;;;;;12.61;57.57;94691.86;1715681;82;21102;-60
2021/10/16 11:07:12;;;;;;;13.50;9.00;;;;;;;12.64;58.07;94688.17;1730442;82;21031;-60
2021/10/16 11:09:39;;;;;;;15.68;9.38;;;;;;;12.66;57.67;94686.49;1735090;81;21030;-59
2021/10/16 11:12:08;;;;;;;13.50;9.23;;;;;;;12.72;57.53;94688.03;1709922;82;21129;-60
2021/10/16 11:14:40;;;;;;;19.87;9.25;;;;;;;12.75;56.80;94685.72;1704697;83;21041;-59
2021/10/16 11:17:11;;;;;;;10.43;9.05;;;;;;;12.76;57.19;94694.94;1686044;83;20987;-66
2021/10/16 11:19:54;;;;;;;14.07;9.75;;;;;;;12.77;57.50;94693.70;1685146;83;21081;-62
2021/10/16 11:22:24;;;;;;;9.85;7.25;;;;;;;12.76;57.23;94677.59;1703686;83;20982;-62
2021/10/16 11:25:00;;;;;;;14.33;8.90;;;;;;;12.78;57.40;94679.27;1678918;84;21092;-60
2021/10/16 11:27:29;;;;;;;19.17;9.50;;;;;;;12.78;57.44;94683.41;1695682;83;21556;-60
2021/10/16 11:29:58;;;;;;;10.32;7.47;;;;;;;12.78;57.43;94676.51;1685278;83;21025;-60
2021/10/16 11:32:25;;;;;;;10.48;7.25;;;;;;;12.77;57.79;94681.87;1689177;83;21100;-63